createdAt,value
2023-08-22T00:01:28.114Z,94909.81
2023-08-22T00:03:58.086Z,94910.09
2023-08-22T00:06:25.370Z,94917.06
2023-08-22T00:08:51.913Z,94920.28
2023-08-22T00:11:18.415Z,94926.28
2023-08-22T00:13:44.905Z,94913.81
2023-08-22T00:16:11.451Z,94920.78
2023-08-22T00:18:37.958Z,94912.84
2023-08-22T00:21:04.939Z,94876.34
2023-08-22T00:23:31.490Z,94909.31
2023-08-22T00:25:57.975Z,94878.91
2023-08-22T00:28:24.547Z,94914.16
2023-08-22T00:30:53.464Z,94916.72
2023-08-22T00:33:19.974Z,94859.34
2023-08-22T00:35:46.551Z,94880.84
2023-08-22T00:38:13.053Z,94893.94
2023-08-22T00:40:39.537Z,94895.38
2023-08-22T00:43:06.030Z,94881.47
2023-08-22T00:45:32.610Z,94901.53
2023-08-22T00:47:59.159Z,94914.13
2023-08-22T00:50:25.746Z,94913.31
2023-08-22T00:52:52.309Z,94921.22
2023-08-22T00:55:19.002Z,94911.22
2023-08-22T00:57:45.516Z,94925.59
2023-08-22T01:00:12.188Z,94929.63
2023-08-22T01:02:40.202Z,94921.88
2023-08-22T01:05:07.330Z,94916.88
2023-08-22T01:07:38.463Z,94920.41
2023-08-22T01:10:12.705Z,94920.75
2023-08-22T01:13:03.617Z,94908.47
2023-08-22T01:15:30.606Z,94921.38
2023-08-22T01:17:58.087Z,94916.69
2023-08-22T01:20:26.154Z,94914.56
2023-08-22T01:22:52.745Z,94925.09
2023-08-22T01:25:19.659Z,94915.69
2023-08-22T01:28:00.320Z,94911.00
2023-08-22T01:30:33.270Z,94900.94
2023-08-22T01:33:05.020Z,94932.16
2023-08-22T01:35:32.497Z,94927.59
2023-08-22T01:37:59.055Z,94928.38
2023-08-22T01:40:25.844Z,94934.84
2023-08-22T01:42:52.392Z,94932.41
2023-08-22T01:45:18.886Z,94919.47
2023-08-22T01:47:45.383Z,94918.66
2023-08-22T01:50:12.174Z,94928.38
2023-08-22T01:52:38.719Z,94923.31
2023-08-22T01:55:05.531Z,94925.41
2023-08-22T01:57:32.035Z,94907.44
2023-08-22T01:59:59.403Z,94917.81
2023-08-22T02:02:26.015Z,94887.22
2023-08-22T02:04:52.668Z,94929.59
2023-08-22T02:07:19.119Z,94919.72
2023-08-22T02:09:45.623Z,94933.66
2023-08-22T02:12:12.116Z,94923.31
2023-08-22T02:14:38.582Z,94913.59
2023-08-22T02:17:05.163Z,94938.50
2023-08-22T02:19:31.672Z,94916.00
2023-08-22T02:21:58.154Z,94920.38
2023-08-22T02:24:24.658Z,94914.72
2023-08-22T02:26:51.192Z,94937.50
2023-08-22T02:29:17.732Z,94928.31
2023-08-22T02:31:44.407Z,94925.03
2023-08-22T02:34:10.939Z,94914.97
2023-08-22T02:36:37.435Z,94942.16
2023-08-22T02:39:04.816Z,94892.66
2023-08-22T02:41:31.343Z,94931.97
2023-08-22T02:43:57.914Z,94936.66
2023-08-22T02:46:24.403Z,94938.44
2023-08-22T02:48:50.946Z,94924.63
2023-08-22T02:51:17.490Z,94935.44
2023-08-22T02:53:43.992Z,94924.44
2023-08-22T02:56:11.522Z,94946.25
2023-08-22T02:58:38.022Z,94931.34
2023-08-22T03:01:08.154Z,94932.78
2023-08-22T03:03:34.852Z,94934.25
2023-08-22T03:06:01.795Z,94925.84
2023-08-22T03:08:28.390Z,94927.88
2023-08-22T03:10:59.788Z,94934.88
2023-08-22T03:13:26.272Z,94905.19
2023-08-22T03:15:53.713Z,94922.19
2023-08-22T03:18:20.358Z,94933.97
2023-08-22T03:20:47.149Z,94915.84
2023-08-22T03:23:15.237Z,94934.78
2023-08-22T03:25:41.754Z,94927.19
2023-08-22T03:28:08.234Z,94926.28
2023-08-22T03:30:34.750Z,94920.25
2023-08-22T03:33:01.289Z,94935.91
2023-08-22T03:35:27.852Z,94916.13
2023-08-22T03:37:54.355Z,94924.69
2023-08-22T03:40:20.882Z,94919.03
2023-08-22T03:42:47.337Z,94903.47
2023-08-22T03:45:13.836Z,94918.66
2023-08-22T03:47:40.615Z,94896.78
2023-08-22T03:50:07.582Z,94885.66
2023-08-22T03:52:34.086Z,94888.53
2023-08-22T03:55:00.646Z,94904.81
2023-08-22T03:57:27.212Z,94917.00
2023-08-22T03:59:53.865Z,94906.44
2023-08-22T04:02:20.419Z,94914.03
2023-08-22T04:04:46.923Z,94902.22
2023-08-22T04:07:13.443Z,94891.38
2023-08-22T04:09:40.009Z,94900.41
2023-08-22T04:12:06.789Z,94895.84
2023-08-22T04:14:33.283Z,94915.97
2023-08-22T04:16:59.807Z,94930.59
2023-08-22T04:19:26.355Z,94926.75
2023-08-22T04:21:53.024Z,94914.63
2023-08-22T04:24:19.547Z,94895.78
2023-08-22T04:26:46.420Z,94924.25
2023-08-22T04:29:13.475Z,94920.31
2023-08-22T04:31:39.964Z,94924.88
2023-08-22T04:34:06.451Z,94913.53
2023-08-22T04:36:32.972Z,94901.88
2023-08-22T04:38:59.498Z,94917.59
2023-08-22T04:41:26.010Z,94912.72
2023-08-22T04:43:52.514Z,94918.88
2023-08-22T04:46:19.242Z,94907.31
2023-08-22T04:48:45.803Z,94912.28
2023-08-22T04:51:12.313Z,94924.44
2023-08-22T04:53:38.804Z,94909.38
2023-08-22T04:56:05.301Z,94915.84
2023-08-22T04:58:31.931Z,94932.03
2023-08-22T05:00:58.562Z,94917.94
2023-08-22T05:03:25.336Z,94920.09
2023-08-22T05:05:51.868Z,94892.38
2023-08-22T05:08:19.021Z,94915.22
2023-08-22T05:10:45.634Z,94909.72
2023-08-22T05:13:12.180Z,94913.19
2023-08-22T05:15:38.663Z,94924.81
2023-08-22T05:18:05.329Z,94929.06
2023-08-22T05:20:31.861Z,94934.03
2023-08-22T05:22:58.336Z,94916.59
2023-08-22T05:25:24.839Z,94905.59
2023-08-22T05:27:51.347Z,94923.88
2023-08-22T05:30:18.484Z,94911.59
2023-08-22T05:32:45.164Z,94931.94
2023-08-22T05:35:11.705Z,94946.69
2023-08-22T05:37:38.320Z,94914.28
2023-08-22T05:40:07.480Z,94937.34
2023-08-22T05:42:34.138Z,94950.63
2023-08-22T05:45:00.649Z,94938.03
2023-08-22T05:47:27.125Z,94943.59
2023-08-22T05:49:53.645Z,94945.88
2023-08-22T05:52:20.485Z,94952.53
2023-08-22T05:54:47.045Z,94947.06
2023-08-22T05:57:13.555Z,94944.50
2023-08-22T05:59:40.028Z,94954.19
2023-08-22T06:02:06.819Z,94967.00
2023-08-22T06:04:33.355Z,94948.13
2023-08-22T06:06:59.843Z,94944.78
2023-08-22T06:09:26.337Z,94952.59
2023-08-22T06:11:52.853Z,94953.56
2023-08-22T06:14:19.349Z,94954.94
2023-08-22T06:16:45.862Z,94938.47
2023-08-22T06:19:12.367Z,94927.16
2023-08-22T06:21:38.871Z,94930.13
2023-08-22T06:24:05.906Z,94963.50
2023-08-22T06:26:32.451Z,94954.75
2023-08-22T06:28:59.262Z,94954.94
2023-08-22T06:31:25.821Z,94954.44
2023-08-22T06:33:52.411Z,94949.56
2023-08-22T06:36:19.045Z,94957.69
2023-08-22T06:38:45.682Z,94955.53
2023-08-22T06:41:12.166Z,94970.56
2023-08-22T06:43:38.657Z,94976.84
2023-08-22T06:46:05.209Z,94976.16
2023-08-22T06:48:41.592Z,94958.50
2023-08-22T06:51:09.727Z,94976.22
2023-08-22T06:53:36.203Z,94983.94
2023-08-22T06:56:02.810Z,94969.81
2023-08-22T06:58:29.363Z,94971.53
2023-08-22T07:00:55.985Z,94990.09
2023-08-22T07:03:22.615Z,94977.25
2023-08-22T07:05:55.936Z,94978.00
2023-08-22T07:08:22.476Z,94985.47
2023-08-22T07:10:49.117Z,94964.81
2023-08-22T07:13:15.797Z,94956.69
2023-08-22T07:15:42.473Z,94979.00
2023-08-22T07:18:09.127Z,94972.00
2023-08-22T07:20:35.684Z,94980.09
2023-08-22T07:23:02.207Z,94981.75
2023-08-22T07:25:29.108Z,94983.09
2023-08-22T07:27:56.055Z,94996.25
2023-08-22T07:30:22.573Z,94995.47
2023-08-22T07:32:49.112Z,95005.06
2023-08-22T07:35:15.813Z,95001.25
2023-08-22T07:37:42.367Z,94991.00
2023-08-22T07:40:09.787Z,94996.63
2023-08-22T07:42:36.675Z,94984.66
2023-08-22T07:45:05.050Z,95001.06
2023-08-22T07:47:31.766Z,94975.16
2023-08-22T07:49:58.382Z,94977.81
2023-08-22T07:52:24.902Z,94985.09
2023-08-22T07:54:51.521Z,94974.81
2023-08-22T07:57:19.598Z,94985.94
2023-08-22T07:59:46.285Z,94986.97
2023-08-22T08:02:12.898Z,94987.31
2023-08-22T08:04:39.462Z,94984.94
2023-08-22T08:07:05.978Z,94989.88
2023-08-22T08:09:35.895Z,95002.78
2023-08-22T08:12:04.503Z,94986.22
2023-08-22T08:14:30.950Z,94993.88
2023-08-22T08:16:57.501Z,95000.81
2023-08-22T08:19:27.036Z,94997.09
2023-08-22T08:21:54.216Z,94993.66
2023-08-22T08:24:20.809Z,94984.88
2023-08-22T08:26:47.361Z,95003.09
2023-08-22T08:29:13.846Z,94973.50
2023-08-22T08:31:40.366Z,94973.75
2023-08-22T08:34:08.024Z,94980.34
2023-08-22T08:36:34.536Z,94956.88
2023-08-22T08:39:01.110Z,94976.81
2023-08-22T08:41:27.970Z,94975.13
2023-08-22T08:43:54.505Z,94973.41
2023-08-22T08:46:21.122Z,94988.78
2023-08-22T08:48:47.871Z,94981.94
2023-08-22T08:51:14.456Z,94975.34
2023-08-22T08:53:41.138Z,94984.91
2023-08-22T08:56:11.168Z,94977.94
2023-08-22T08:58:39.339Z,94979.19
2023-08-22T09:01:06.355Z,94975.97
2023-08-22T09:03:32.841Z,94985.38
2023-08-22T09:05:59.912Z,94973.41
2023-08-22T09:08:26.512Z,94976.66
2023-08-22T09:10:53.822Z,94978.03
2023-08-22T09:13:33.289Z,94978.47
2023-08-22T09:16:05.303Z,94967.00
2023-08-22T09:18:33.984Z,94960.28
2023-08-22T09:21:05.205Z,94965.72
2023-08-22T09:23:32.961Z,94942.94
2023-08-22T09:26:03.015Z,94974.84
2023-08-22T09:28:29.591Z,94961.44
2023-08-22T09:30:56.150Z,94952.88
2023-08-22T09:33:22.644Z,94945.19
2023-08-22T09:35:49.412Z,94938.59
2023-08-22T09:38:15.962Z,94955.09
2023-08-22T09:40:53.274Z,94939.97
2023-08-22T09:43:20.646Z,94931.50
2023-08-22T09:45:47.342Z,94932.41
2023-08-22T09:48:17.223Z,94943.22
2023-08-22T09:50:44.120Z,94949.03
2023-08-22T09:53:11.019Z,94915.59
2023-08-22T09:55:37.552Z,94933.84
2023-08-22T09:58:05.581Z,94940.88
2023-08-22T10:00:32.377Z,94940.19
2023-08-22T10:02:59.179Z,94925.63
2023-08-22T10:05:25.784Z,94931.72
2023-08-22T10:07:52.318Z,94932.56
2023-08-22T10:10:18.897Z,94905.53
2023-08-22T10:12:45.442Z,94917.28
2023-08-22T10:15:12.104Z,94922.53
2023-08-22T10:17:39.793Z,94928.25
2023-08-22T10:20:06.812Z,94920.78
2023-08-22T10:22:34.208Z,94910.88
2023-08-22T10:25:08.100Z,94901.34
2023-08-22T10:27:37.704Z,94906.72
2023-08-22T11:10:40.482Z,94882.81
2023-08-22T11:13:08.911Z,94877.63
2023-08-22T11:15:35.689Z,94874.44
2023-08-22T11:18:02.253Z,94875.22
2023-08-22T11:20:28.771Z,94880.84
2023-08-22T11:22:55.429Z,94875.63
2023-08-22T11:25:25.968Z,94878.03
2023-08-22T11:27:52.526Z,94872.03
2023-08-22T11:30:20.015Z,94866.44
2023-08-22T11:32:46.821Z,94867.66
2023-08-22T11:35:13.623Z,94860.47
2023-08-22T11:37:43.420Z,94856.44
2023-08-22T11:40:15.541Z,94859.22
2023-08-22T11:42:42.714Z,94855.22
2023-08-22T11:45:11.377Z,94853.63
2023-08-22T11:47:57.688Z,94852.44
2023-08-22T11:50:25.912Z,94841.63
2023-08-22T11:53:08.807Z,94849.22
2023-08-22T11:55:36.459Z,94846.41
2023-08-22T11:58:06.848Z,94841.63
2023-08-22T12:00:34.009Z,94844.00
2023-08-22T12:03:02.485Z,94830.84
2023-08-22T12:05:35.653Z,94834.03
2023-08-22T12:08:16.879Z,94837.59
2023-08-22T12:10:50.618Z,94834.38
2023-08-22T12:13:21.296Z,94837.97
2023-08-22T12:15:48.111Z,94837.16
2023-08-22T12:18:14.876Z,94832.78
2023-08-22T12:20:43.049Z,94832.75
2023-08-22T12:23:10.860Z,94827.16
2023-08-22T12:25:38.595Z,94828.34
2023-08-22T12:28:05.787Z,94827.97
2023-08-22T12:30:34.747Z,94828.34
2023-08-22T12:33:03.995Z,94828.75
2023-08-22T12:35:32.079Z,94827.56
2023-08-22T12:37:58.947Z,94826.34
2023-08-22T12:40:25.529Z,94819.13
2023-08-22T12:42:52.173Z,94824.34
2023-08-22T12:45:18.835Z,94825.13
2023-08-22T12:47:45.744Z,94826.75
2023-08-22T12:50:12.714Z,94821.97
2023-08-22T12:52:39.225Z,94824.38
2023-08-22T12:55:11.139Z,94818.38
2023-08-22T12:57:41.981Z,94809.97
2023-08-22T13:00:09.867Z,94817.97
2023-08-22T13:02:43.028Z,94814.34
2023-08-22T13:05:09.824Z,94810.34
2023-08-22T13:07:36.447Z,94803.56
2023-08-22T13:10:05.129Z,94807.56
2023-08-22T13:12:31.549Z,94811.16
2023-08-22T13:14:58.099Z,94798.38
2023-08-22T13:17:24.694Z,94807.16
2023-08-22T13:19:51.212Z,94801.16
2023-08-22T13:22:17.760Z,94800.78
2023-08-22T13:24:44.440Z,94800.38
2023-08-22T13:27:10.945Z,94795.13
2023-08-22T13:29:37.564Z,94801.91
2023-08-22T13:32:04.566Z,94793.53
2023-08-22T13:34:31.121Z,94787.53
2023-08-22T13:36:57.664Z,94785.53
2023-08-22T13:39:24.137Z,94777.94
2023-08-22T13:41:50.710Z,94789.94
2023-08-22T13:44:17.242Z,94785.91
2023-08-22T13:46:44.054Z,94775.13
2023-08-22T13:49:10.632Z,94782.69
2023-08-22T13:51:37.135Z,94779.06
2023-08-22T13:54:04.350Z,94777.06
2023-08-22T13:56:31.758Z,94764.31
2023-08-22T13:58:59.212Z,94767.09
2023-08-22T14:01:27.391Z,94769.09
2023-08-22T14:03:54.090Z,94761.50
2023-08-22T14:06:20.726Z,94763.91
2023-08-22T14:08:48.811Z,94755.88
2023-08-22T14:11:15.623Z,94755.88
2023-08-22T14:13:43.727Z,94759.47
2023-08-22T14:16:10.391Z,94752.66
2023-08-22T14:18:36.974Z,94745.47
2023-08-22T14:21:03.613Z,94745.88
2023-08-22T14:23:30.357Z,94750.66
2023-08-22T14:25:56.925Z,94753.03
2023-08-22T14:28:23.541Z,94748.22
2023-08-22T14:30:50.150Z,94744.63
2023-08-22T14:33:16.823Z,94751.41
2023-08-22T14:35:43.530Z,94743.03
2023-08-22T14:38:10.272Z,94737.44
2023-08-22T14:40:37.136Z,94736.63
2023-08-22T14:43:03.774Z,94736.22
2023-08-22T14:45:30.297Z,94727.47
2023-08-22T14:47:56.821Z,94729.06
2023-08-22T14:50:23.385Z,94727.81
2023-08-22T14:52:49.942Z,94732.59
2023-08-22T14:55:16.629Z,94723.84
2023-08-22T14:57:43.333Z,94727.00
2023-08-22T15:00:11.214Z,94721.03
2023-08-22T15:02:37.940Z,94725.81
2023-08-22T15:05:04.989Z,94719.81
2023-08-22T15:07:31.556Z,94724.56
2023-08-22T15:09:58.446Z,94723.75
2023-08-22T15:12:25.187Z,94723.75
2023-08-22T15:14:51.684Z,94725.34
2023-08-22T15:17:18.272Z,94716.53
2023-08-22T15:19:44.977Z,94723.66
2023-08-22T15:22:11.561Z,94716.09
2023-08-22T15:24:38.093Z,94716.09
2023-08-22T15:27:04.586Z,94718.47
2023-08-22T15:29:31.083Z,94714.91
2023-08-22T15:31:57.809Z,94718.47
2023-08-22T15:34:25.406Z,94716.09
2023-08-22T15:36:52.296Z,94708.91
2023-08-22T15:39:19.272Z,94713.28
2023-08-22T15:41:45.823Z,94715.66
2023-08-22T15:44:12.316Z,94717.66
2023-08-22T15:46:38.894Z,94718.81
2023-08-22T15:49:05.554Z,94715.63
2023-08-22T15:51:33.022Z,94721.59
2023-08-22T15:53:59.562Z,94718.41
2023-08-22T15:56:28.847Z,94712.00
2023-08-22T15:58:55.854Z,94708.00
2023-08-22T16:01:22.571Z,94706.75
2023-08-22T16:03:49.251Z,94704.38
2023-08-22T16:06:16.046Z,94703.56
2023-08-22T16:08:42.525Z,94694.41
2023-08-22T16:11:09.114Z,94701.56
2023-08-22T16:13:35.635Z,94706.75
2023-08-22T16:16:02.177Z,94698.38
2023-08-22T16:18:28.691Z,94691.22
2023-08-22T16:20:55.212Z,94696.78
2023-08-22T16:23:22.890Z,94695.59
2023-08-22T16:25:50.327Z,94687.63
2023-08-22T16:28:16.933Z,94688.75
2023-08-22T16:30:43.655Z,94696.31
2023-08-22T16:33:10.435Z,94687.94
2023-08-22T16:35:37.137Z,94693.47
2023-08-22T16:38:04.386Z,94690.25
2023-08-22T16:40:31.095Z,94696.19
2023-08-22T16:42:57.682Z,94691.78
2023-08-22T16:45:24.195Z,94694.94
2023-08-22T16:47:51.061Z,94689.38
2023-08-22T16:50:18.016Z,94695.34
2023-08-22T16:52:44.504Z,94692.91
2023-08-22T16:55:12.855Z,94696.47
2023-08-22T16:57:40.198Z,94693.25
2023-08-22T17:00:13.765Z,94696.41
2023-08-22T17:02:40.464Z,94691.22
2023-08-22T17:05:07.409Z,94688.41
2023-08-22T17:07:33.920Z,94696.34
2023-08-22T17:10:00.468Z,94691.13
2023-08-22T17:12:27.001Z,94697.91
2023-08-22T17:14:53.566Z,94694.63
2023-08-22T17:17:20.098Z,94691.03
2023-08-22T17:19:46.719Z,94689.81
2023-08-22T17:22:13.353Z,94688.59
2023-08-22T17:24:39.982Z,94696.56
2023-08-22T17:27:06.478Z,94696.09
2023-08-22T17:29:33.019Z,94688.88
2023-08-22T17:32:00.340Z,94692.44
2023-08-22T17:34:26.823Z,94692.78
2023-08-22T17:36:53.523Z,94700.31
2023-08-22T17:39:20.055Z,94697.06
2023-08-22T17:41:46.608Z,94707.34
2023-08-22T17:44:13.164Z,94701.34
2023-08-22T17:46:40.456Z,94702.03
2023-08-22T17:49:06.992Z,94701.94
2023-08-22T17:51:33.724Z,94709.41
2023-08-22T17:54:00.675Z,94702.59
2023-08-22T17:56:27.133Z,94708.88
2023-08-22T17:58:53.724Z,94707.16
2023-08-22T18:01:20.429Z,94701.09
2023-08-22T18:03:47.221Z,94705.31
2023-08-22T18:06:13.843Z,94702.81
2023-08-22T18:08:41.901Z,94708.22
2023-08-22T18:11:27.228Z,94710.88
2023-08-22T18:13:53.919Z,94700.22
2023-08-22T18:16:20.735Z,94689.97
2023-08-22T18:18:47.284Z,94689.81
2023-08-22T18:21:14.225Z,94712.81
2023-08-22T18:23:41.100Z,94710.75
2023-08-22T18:26:09.048Z,94698.84
2023-08-22T18:28:35.825Z,94720.63
2023-08-22T18:31:03.649Z,94698.34
2023-08-22T18:33:30.437Z,94702.09
2023-08-22T18:35:57.032Z,94701.13
2023-08-22T18:38:23.595Z,94706.97
2023-08-22T18:40:54.033Z,94723.22
2023-08-22T18:43:20.858Z,94698.22
2023-08-22T18:45:47.895Z,94709.69
2023-08-22T18:48:14.547Z,94733.09
2023-08-22T18:50:41.202Z,94711.56
2023-08-22T18:53:07.766Z,94731.75
2023-08-22T18:55:34.931Z,94733.09
2023-08-22T18:58:01.882Z,94729.00
2023-08-22T19:00:28.595Z,94703.44
2023-08-22T19:02:56.690Z,94725.41
2023-08-22T19:05:24.384Z,94694.59
2023-08-22T19:07:50.927Z,94750.22
2023-08-22T19:10:17.515Z,94752.03
2023-08-22T19:12:44.087Z,94743.81
2023-08-22T19:15:10.788Z,94747.19
2023-08-22T19:17:37.394Z,94760.78
2023-08-22T19:20:04.827Z,94747.75
2023-08-22T19:22:31.349Z,94759.97
2023-08-22T19:24:57.862Z,94764.97
2023-08-22T19:27:26.496Z,94767.22
2023-08-22T19:29:53.100Z,94774.16
2023-08-22T19:32:31.771Z,94766.63
2023-08-22T19:35:06.482Z,94758.94
2023-08-22T19:37:33.075Z,94756.31
2023-08-22T19:39:59.575Z,94772.31
2023-08-22T19:42:26.235Z,94776.13
2023-08-22T19:44:55.968Z,94764.13
2023-08-22T19:47:22.909Z,94761.06
2023-08-22T19:49:50.306Z,94783.03
2023-08-22T19:52:17.053Z,94793.31
2023-08-22T19:54:43.765Z,94777.00
2023-08-22T19:57:10.609Z,94788.88
2023-08-22T19:59:39.901Z,94779.09
2023-08-22T20:02:06.479Z,94770.94
2023-08-22T20:04:33.034Z,94776.38
2023-08-22T20:06:59.556Z,94778.34
2023-08-22T20:09:26.211Z,94783.75
2023-08-22T20:11:52.877Z,94786.63
2023-08-22T20:14:19.415Z,94778.38
2023-08-22T20:16:46.083Z,94776.75
2023-08-22T20:19:13.251Z,94784.69
2023-08-22T20:21:39.831Z,94796.22
2023-08-22T20:24:06.502Z,94782.78
2023-08-22T20:26:39.788Z,94782.50
2023-08-22T20:29:07.123Z,94795.84
2023-08-22T20:31:35.060Z,94782.63
2023-08-22T20:34:01.609Z,94782.84
2023-08-22T20:36:28.167Z,94786.88
2023-08-22T20:38:57.147Z,94789.63
2023-08-22T20:41:23.702Z,94800.81
2023-08-22T20:43:50.188Z,94803.09
2023-08-22T20:46:16.729Z,94787.34
2023-08-22T20:48:43.339Z,94770.44
2023-08-22T20:51:09.906Z,94801.38
2023-08-22T20:53:36.392Z,94810.56
2023-08-22T20:56:02.873Z,94807.59
2023-08-22T20:58:29.406Z,94792.72
2023-08-22T21:00:55.924Z,94797.09
2023-08-22T21:03:22.500Z,94772.59
2023-08-22T21:05:49.843Z,94807.22
2023-08-22T21:08:16.343Z,94799.19
2023-08-22T21:10:43.311Z,94798.47
2023-08-22T21:13:09.790Z,94796.06
2023-08-22T21:15:36.299Z,94809.88
2023-08-22T21:18:02.920Z,94777.97
2023-08-22T21:20:29.464Z,94786.91
2023-08-22T21:22:56.073Z,94797.28
2023-08-22T21:25:22.550Z,94792.09
2023-08-22T21:27:49.038Z,94774.81
2023-08-22T21:30:15.578Z,94798.19
2023-08-22T21:32:42.139Z,94814.66
2023-08-22T21:35:09.042Z,94807.59
2023-08-22T21:37:35.550Z,94792.63
2023-08-22T21:40:02.102Z,94809.41
2023-08-22T21:42:28.690Z,94802.63
2023-08-22T21:44:55.294Z,94788.69
2023-08-22T21:47:21.815Z,94788.56
2023-08-22T21:49:48.409Z,94789.00
2023-08-22T21:52:15.077Z,94792.09
2023-08-22T21:54:41.754Z,94813.47
2023-08-22T21:57:08.248Z,94806.09
2023-08-22T21:59:34.826Z,94790.78
2023-08-22T22:02:01.415Z,94791.44
2023-08-22T22:04:27.973Z,94796.13
2023-08-22T22:06:54.472Z,94789.63
2023-08-22T22:09:20.986Z,94813.00
2023-08-22T22:11:47.530Z,94798.81
2023-08-22T22:14:14.116Z,94796.75
2023-08-22T22:16:45.537Z,94804.22
2023-08-22T22:19:12.829Z,94778.38
2023-08-22T22:21:39.452Z,94790.38
2023-08-22T22:24:06.207Z,94804.72
2023-08-22T22:26:32.750Z,94786.88
2023-08-22T22:28:59.279Z,94789.63
2023-08-22T22:31:25.909Z,94804.31
2023-08-22T22:33:52.433Z,94806.28
2023-08-22T22:36:18.932Z,94756.72
2023-08-22T22:38:45.807Z,94790.00
2023-08-22T22:41:12.351Z,94778.72
2023-08-22T22:43:38.893Z,94797.63
2023-08-22T22:46:05.432Z,94787.94
2023-08-22T22:48:31.970Z,94773.59
2023-08-22T22:50:58.501Z,94766.00
2023-08-22T22:53:25.062Z,94754.44
2023-08-22T22:55:51.683Z,94764.78
2023-08-22T22:58:18.174Z,94744.63
2023-08-22T23:00:44.749Z,94761.41
2023-08-22T23:03:11.402Z,94779.13
2023-08-22T23:05:38.013Z,94770.94
2023-08-22T23:08:04.880Z,94778.06
2023-08-22T23:10:31.416Z,94784.03
2023-08-22T23:12:58.463Z,94781.81
2023-08-22T23:15:25.002Z,94789.88
2023-08-22T23:17:51.932Z,94785.97
2023-08-22T23:20:19.918Z,94781.97
2023-08-22T23:22:47.353Z,94792.28
2023-08-22T23:25:14.047Z,94786.66
2023-08-22T23:27:40.654Z,94752.84
2023-08-22T23:30:08.768Z,94771.53
2023-08-22T23:32:35.448Z,94776.69
2023-08-22T23:35:06.384Z,94797.38
2023-08-22T23:37:33.050Z,94797.84
2023-08-22T23:39:59.554Z,94782.41
2023-08-22T23:42:26.194Z,94795.16
2023-08-22T23:44:52.671Z,94765.78
2023-08-22T23:47:19.166Z,94790.34
2023-08-22T23:49:45.703Z,94798.94
2023-08-22T23:52:12.187Z,94791.97
2023-08-22T23:54:38.711Z,94783.78
2023-08-22T23:57:05.365Z,94779.09
2023-08-22T23:59:32.457Z,94782.97
